sensor_id;sensor_type;location;lat;lon;timestamp;P1;durP1;ratioP1;P2;durP2;ratioP2
18929;SDS011;43305;52.186;5.598;2024-03-22T00:02:18;67.93;;;32.85;;
18929;SDS011;43305;52.186;5.598;2024-03-22T00:04:45;63.17;;;31.35;;
18929;SDS011;43305;52.186;5.598;2024-03-22T00:07:12;62.05;;;31.13;;
18929;SDS011;43305;52.186;5.598;2024-03-22T00:09:39;64.75;;;30.58;;
18929;SDS011;43305;52.186;5.598;2024-03-22T00:12:05;62.63;;;30.48;;
18929;SDS011;43305;52.186;5.598;2024-03-22T00:14:32;63.42;;;31.13;;
18929;SDS011;43305;52.186;5.598;2024-03-22T00:16:58;63.47;;;31.60;;
18929;SDS011;43305;52.186;5.598;2024-03-22T00:19:25;61.95;;;30.17;;
18929;SDS011;43305;52.186;5.598;2024-03-22T00:21:51;60.78;;;30.73;;
18929;SDS011;43305;52.186;5.598;2024-03-22T00:24:19;66.32;;;31.02;;
18929;SDS011;43305;52.186;5.598;2024-03-22T00:26:45;65.03;;;31.00;;
18929;SDS011;43305;52.186;5.598;2024-03-22T00:29:11;62.83;;;30.27;;
18929;SDS011;43305;52.186;5.598;2024-03-22T00:31:37;67.20;;;30.92;;
18929;SDS011;43305;52.186;5.598;2024-03-22T00:34:05;66.55;;;31.10;;
18929;SDS011;43305;52.186;5.598;2024-03-22T00:36:31;61.22;;;30.25;;
18929;SDS011;43305;52.186;5.598;2024-03-22T00:38:58;62.65;;;30.63;;
18929;SDS011;43305;52.186;5.598;2024-03-22T00:41:28;66.80;;;31.50;;
18929;SDS011;43305;52.186;5.598;2024-03-22T00:43:55;64.53;;;29.52;;
18929;SDS011;43305;52.186;5.598;2024-03-22T00:46:20;63.70;;;31.20;;
18929;SDS011;43305;52.186;5.598;2024-03-22T00:48:47;61.92;;;30.77;;
18929;SDS011;43305;52.186;5.598;2024-03-22T00:51:13;70.13;;;31.77;;
18929;SDS011;43305;52.186;5.598;2024-03-22T00:53:40;64.10;;;29.45;;
18929;SDS011;43305;52.186;5.598;2024-03-22T00:56:06;64.38;;;32.05;;
18929;SDS011;43305;52.186;5.598;2024-03-22T00:58:34;67.75;;;31.30;;
18929;SDS011;43305;52.186;5.598;2024-03-22T01:01:00;69.85;;;31.02;;
18929;SDS011;43305;52.186;5.598;2024-03-22T01:03:30;68.70;;;31.35;;
18929;SDS011;43305;52.186;5.598;2024-03-22T01:05:55;72.93;;;32.88;;
18929;SDS011;43305;52.186;5.598;2024-03-22T01:08:23;68.47;;;32.63;;
18929;SDS011;43305;52.186;5.598;2024-03-22T01:10:52;66.43;;;31.58;;
18929;SDS011;43305;52.186;5.598;2024-03-22T01:13:22;69.78;;;31.83;;
18929;SDS011;43305;52.186;5.598;2024-03-22T01:15:49;69.18;;;32.33;;
18929;SDS011;43305;52.186;5.598;2024-03-22T01:18:16;67.55;;;32.33;;
18929;SDS011;43305;52.186;5.598;2024-03-22T01:20:42;68.75;;;32.95;;
18929;SDS011;43305;52.186;5.598;2024-03-22T01:23:09;71.32;;;32.83;;
18929;SDS011;43305;52.186;5.598;2024-03-22T01:25:35;66.70;;;32.13;;
18929;SDS011;43305;52.186;5.598;2024-03-22T01:28:02;69.60;;;32.83;;
18929;SDS011;43305;52.186;5.598;2024-03-22T01:30:29;70.97;;;33.85;;
18929;SDS011;43305;52.186;5.598;2024-03-22T01:32:57;74.35;;;33.63;;
18929;SDS011;43305;52.186;5.598;2024-03-22T01:35:23;73.50;;;33.15;;
18929;SDS011;43305;52.186;5.598;2024-03-22T01:37:53;73.10;;;32.80;;
18929;SDS011;43305;52.186;5.598;2024-03-22T01:40:21;73.85;;;34.70;;
18929;SDS011;43305;52.186;5.598;2024-03-22T01:42:48;69.97;;;32.20;;
18929;SDS011;43305;52.186;5.598;2024-03-22T01:45:18;68.20;;;32.45;;
18929;SDS011;43305;52.186;5.598;2024-03-22T01:47:45;73.18;;;33.55;;
18929;SDS011;43305;52.186;5.598;2024-03-22T01:50:13;72.50;;;33.13;;
18929;SDS011;43305;52.186;5.598;2024-03-22T01:52:40;73.40;;;33.30;;
18929;SDS011;43305;52.186;5.598;2024-03-22T01:55:06;72.13;;;33.60;;
18929;SDS011;43305;52.186;5.598;2024-03-22T01:57:33;75.57;;;33.90;;
18929;SDS011;43305;52.186;5.598;2024-03-22T02:00:00;68.55;;;33.22;;
18929;SDS011;43305;52.186;5.598;2024-03-22T02:02:27;72.97;;;33.38;;
18929;SDS011;43305;52.186;5.598;2024-03-22T02:04:56;73.80;;;34.58;;
18929;SDS011;43305;52.186;5.598;2024-03-22T02:07:26;75.80;;;35.25;;
18929;SDS011;43305;52.186;5.598;2024-03-22T02:09:55;71.30;;;34.70;;
18929;SDS011;43305;52.186;5.598;2024-03-22T02:12:22;74.97;;;35.35;;
18929;SDS011;43305;52.186;5.598;2024-03-22T02:14:48;76.90;;;35.30;;
18929;SDS011;43305;52.186;5.598;2024-03-22T02:17:16;74.20;;;34.97;;
18929;SDS011;43305;52.186;5.598;2024-03-22T02:19:42;77.45;;;35.70;;
18929;SDS011;43305;52.186;5.598;2024-03-22T02:22:09;73.35;;;34.42;;
18929;SDS011;43305;52.186;5.598;2024-03-22T02:24:36;82.88;;;35.90;;
18929;SDS011;43305;52.186;5.598;2024-03-22T02:27:03;72.35;;;35.08;;
18929;SDS011;43305;52.186;5.598;2024-03-22T02:29:29;79.63;;;35.17;;
18929;SDS011;43305;52.186;5.598;2024-03-22T02:31:56;75.70;;;34.42;;
18929;SDS011;43305;52.186;5.598;2024-03-22T02:34:23;73.28;;;34.40;;
18929;SDS011;43305;52.186;5.598;2024-03-22T02:36:52;75.40;;;35.63;;
18929;SDS011;43305;52.186;5.598;2024-03-22T02:39:21;80.28;;;35.88;;
18929;SDS011;43305;52.186;5.598;2024-03-22T02:41:49;79.28;;;36.22;;
18929;SDS011;43305;52.186;5.598;2024-03-22T02:44:15;74.60;;;35.03;;
18929;SDS011;43305;52.186;5.598;2024-03-22T02:46:42;76.20;;;36.08;;
18929;SDS011;43305;52.186;5.598;2024-03-22T02:49:08;75.82;;;35.33;;
18929;SDS011;43305;52.186;5.598;2024-03-22T02:51:34;73.85;;;35.80;;
18929;SDS011;43305;52.186;5.598;2024-03-22T02:54:00;72.95;;;33.97;;
18929;SDS011;43305;52.186;5.598;2024-03-22T02:56:27;77.97;;;36.05;;
18929;SDS011;43305;52.186;5.598;2024-03-22T02:58:58;75.68;;;36.05;;
18929;SDS011;43305;52.186;5.598;2024-03-22T03:01:24;77.72;;;35.55;;
18929;SDS011;43305;52.186;5.598;2024-03-22T03:03:50;73.43;;;35.63;;
18929;SDS011;43305;52.186;5.598;2024-03-22T03:06:17;74.55;;;36.20;;
18929;SDS011;43305;52.186;5.598;2024-03-22T03:08:45;72.88;;;34.92;;
18929;SDS011;43305;52.186;5.598;2024-03-22T03:11:12;71.50;;;34.22;;
18929;SDS011;43305;52.186;5.598;2024-03-22T03:13:39;76.10;;;36.03;;
18929;SDS011;43305;52.186;5.598;2024-03-22T03:16:07;78.18;;;35.88;;
18929;SDS011;43305;52.186;5.598;2024-03-22T03:18:33;68.32;;;35.03;;
18929;SDS011;43305;52.186;5.598;2024-03-22T03:20:59;76.88;;;35.65;;
18929;SDS011;43305;52.186;5.598;2024-03-22T03:23:25;76.85;;;37.22;;
18929;SDS011;43305;52.186;5.598;2024-03-22T03:25:52;76.03;;;36.45;;
18929;SDS011;43305;52.186;5.598;2024-03-22T03:28:18;66.35;;;33.53;;
18929;SDS011;43305;52.186;5.598;2024-03-22T03:30:45;75.45;;;35.55;;
18929;SDS011;43305;52.186;5.598;2024-03-22T03:33:12;74.90;;;34.92;;
18929;SDS011;43305;52.186;5.598;2024-03-22T03:35:39;73.10;;;36.22;;
18929;SDS011;43305;52.186;5.598;2024-03-22T03:38:05;74.88;;;34.50;;
18929;SDS011;43305;52.186;5.598;2024-03-22T03:40:32;75.78;;;34.47;;
18929;SDS011;43305;52.186;5.598;2024-03-22T03:42:58;77.07;;;35.75;;
18929;SDS011;43305;52.186;5.598;2024-03-22T03:45:27;86.13;;;36.90;;
18929;SDS011;43305;52.186;5.598;2024-03-22T03:47:53;82.95;;;37.22;;
18929;SDS011;43305;52.186;5.598;2024-03-22T03:50:24;82.68;;;37.13;;
18929;SDS011;43305;52.186;5.598;2024-03-22T03:52:50;83.25;;;35.53;;
18929;SDS011;43305;52.186;5.598;2024-03-22T03:55:17;76.85;;;35.08;;
18929;SDS011;43305;52.186;5.598;2024-03-22T03:57:43;85.70;;;35.15;;
18929;SDS011;43305;52.186;5.598;2024-03-22T04:00:10;81.68;;;34.78;;
18929;SDS011;43305;52.186;5.598;2024-03-22T04:02:36;75.30;;;34.85;;
18929;SDS011;43305;52.186;5.598;2024-03-22T04:05:03;78.05;;;33.65;;
18929;SDS011;43305;52.186;5.598;2024-03-22T04:07:31;76.32;;;34.15;;
18929;SDS011;43305;52.186;5.598;2024-03-22T04:09:58;81.18;;;34.13;;
18929;SDS011;43305;52.186;5.598;2024-03-22T04:12:25;77.32;;;34.53;;
18929;SDS011;43305;52.186;5.598;2024-03-22T04:14:52;79.00;;;34.58;;
18929;SDS011;43305;52.186;5.598;2024-03-22T04:17:18;75.25;;;33.92;;
18929;SDS011;43305;52.186;5.598;2024-03-22T04:19:45;81.40;;;34.72;;
18929;SDS011;43305;52.186;5.598;2024-03-22T04:22:10;71.43;;;34.28;;
18929;SDS011;43305;52.186;5.598;2024-03-22T04:24:39;80.65;;;34.30;;
18929;SDS011;43305;52.186;5.598;2024-03-22T04:27:04;76.68;;;33.10;;
18929;SDS011;43305;52.186;5.598;2024-03-22T04:29:32;75.45;;;32.05;;
18929;SDS011;43305;52.186;5.598;2024-03-22T04:31:58;80.18;;;32.38;;
18929;SDS011;43305;52.186;5.598;2024-03-22T04:34:24;74.82;;;31.27;;
18929;SDS011;43305;52.186;5.598;2024-03-22T04:36:50;76.65;;;32.45;;
18929;SDS011;43305;52.186;5.598;2024-03-22T04:39:18;67.32;;;30.05;;
18929;SDS011;43305;52.186;5.598;2024-03-22T04:41:47;73.60;;;31.75;;
18929;SDS011;43305;52.186;5.598;2024-03-22T04:44:14;75.13;;;30.25;;
18929;SDS011;43305;52.186;5.598;2024-03-22T04:46:40;72.93;;;31.65;;
18929;SDS011;43305;52.186;5.598;2024-03-22T04:49:07;73.90;;;32.50;;
18929;SDS011;43305;52.186;5.598;2024-03-22T04:51:33;72.07;;;31.50;;
18929;SDS011;43305;52.186;5.598;2024-03-22T04:54:00;71.13;;;31.58;;
18929;SDS011;43305;52.186;5.598;2024-03-22T04:56:27;75.07;;;31.85;;
18929;SDS011;43305;52.186;5.598;2024-03-22T04:58:56;72.00;;;32.80;;
18929;SDS011;43305;52.186;5.598;2024-03-22T05:01:23;75.22;;;32.33;;
18929;SDS011;43305;52.186;5.598;2024-03-22T05:03:52;75.20;;;32.22;;
18929;SDS011;43305;52.186;5.598;2024-03-22T05:06:20;73.32;;;32.72;;
18929;SDS011;43305;52.186;5.598;2024-03-22T05:08:46;74.97;;;32.70;;
18929;SDS011;43305;52.186;5.598;2024-03-22T05:11:13;71.97;;;32.88;;
18929;SDS011;43305;52.186;5.598;2024-03-22T05:13:39;70.65;;;31.85;;
18929;SDS011;43305;52.186;5.598;2024-03-22T05:16:07;73.15;;;32.80;;
18929;SDS011;43305;52.186;5.598;2024-03-22T05:18:33;76.70;;;33.63;;
18929;SDS011;43305;52.186;5.598;2024-03-22T05:21:00;70.75;;;32.47;;
18929;SDS011;43305;52.186;5.598;2024-03-22T05:23:25;79.00;;;33.25;;
18929;SDS011;43305;52.186;5.598;2024-03-22T05:25:52;72.85;;;33.17;;
18929;SDS011;43305;52.186;5.598;2024-03-22T05:28:18;74.57;;;34.55;;
18929;SDS011;43305;52.186;5.598;2024-03-22T05:30:45;73.43;;;32.25;;
18929;SDS011;43305;52.186;5.598;2024-03-22T05:33:13;77.22;;;33.83;;
18929;SDS011;43305;52.186;5.598;2024-03-22T05:35:40;80.78;;;34.55;;
18929;SDS011;43305;52.186;5.598;2024-03-22T05:38:06;72.35;;;34.05;;
18929;SDS011;43305;52.186;5.598;2024-03-22T05:40:35;79.53;;;33.90;;
18929;SDS011;43305;52.186;5.598;2024-03-22T05:43:03;79.90;;;34.85;;
18929;SDS011;43305;52.186;5.598;2024-03-22T05:45:30;78.10;;;33.20;;
18929;SDS011;43305;52.186;5.598;2024-03-22T05:47:56;74.18;;;34.17;;
18929;SDS011;43305;52.186;5.598;2024-03-22T05:50:24;80.13;;;34.72;;
18929;SDS011;43305;52.186;5.598;2024-03-22T05:52:50;78.75;;;33.13;;
18929;SDS011;43305;52.186;5.598;2024-03-22T05:55:17;76.03;;;34.55;;
18929;SDS011;43305;52.186;5.598;2024-03-22T05:57:43;72.28;;;33.85;;
18929;SDS011;43305;52.186;5.598;2024-03-22T06:00:10;76.20;;;34.80;;
18929;SDS011;43305;52.186;5.598;2024-03-22T06:02:38;68.60;;;32.20;;
18929;SDS011;43305;52.186;5.598;2024-03-22T06:05:05;76.10;;;33.55;;
18929;SDS011;43305;52.186;5.598;2024-03-22T06:07:32;75.38;;;33.72;;
18929;SDS011;43305;52.186;5.598;2024-03-22T06:10:06;77.50;;;34.22;;
18929;SDS011;43305;52.186;5.598;2024-03-22T06:12:32;70.68;;;31.85;;
18929;SDS011;43305;52.186;5.598;2024-03-22T06:14:59;68.85;;;32.42;;
18929;SDS011;43305;52.186;5.598;2024-03-22T06:17:31;68.75;;;32.50;;
18929;SDS011;43305;52.186;5.598;2024-03-22T06:19:58;63.78;;;30.73;;
18929;SDS011;43305;52.186;5.598;2024-03-22T06:22:24;68.07;;;30.48;;
18929;SDS011;43305;52.186;5.598;2024-03-22T06:24:53;64.05;;;30.20;;
18929;SDS011;43305;52.186;5.598;2024-03-22T06:27:20;67.15;;;30.88;;
18929;SDS011;43305;52.186;5.598;2024-03-22T06:29:47;63.80;;;29.67;;
18929;SDS011;43305;52.186;5.598;2024-03-22T06:32:13;65.53;;;30.05;;
18929;SDS011;43305;52.186;5.598;2024-03-22T06:34:40;62.47;;;29.85;;
18929;SDS011;43305;52.186;5.598;2024-03-22T06:37:06;62.83;;;30.00;;
18929;SDS011;43305;52.186;5.598;2024-03-22T06:39:32;68.25;;;30.83;;
18929;SDS011;43305;52.186;5.598;2024-03-22T06:42:00;64.38;;;29.98;;
18929;SDS011;43305;52.186;5.598;2024-03-22T06:44:26;64.28;;;29.88;;
18929;SDS011;43305;52.186;5.598;2024-03-22T06:46:52;66.20;;;29.80;;
18929;SDS011;43305;52.186;5.598;2024-03-22T06:49:21;66.03;;;30.20;;
18929;SDS011;43305;52.186;5.598;2024-03-22T06:51:47;65.38;;;29.23;;
18929;SDS011;43305;52.186;5.598;2024-03-22T06:54:16;67.00;;;29.85;;
18929;SDS011;43305;52.186;5.598;2024-03-22T06:56:42;64.97;;;29.00;;
18929;SDS011;43305;52.186;5.598;2024-03-22T06:59:10;58.90;;;28.20;;
18929;SDS011;43305;52.186;5.598;2024-03-22T07:01:35;63.47;;;30.00;;
18929;SDS011;43305;52.186;5.598;2024-03-22T07:04:02;60.55;;;28.00;;
18929;SDS011;43305;52.186;5.598;2024-03-22T07:06:28;62.03;;;29.23;;
18929;SDS011;43305;52.186;5.598;2024-03-22T07:08:55;56.63;;;27.08;;
18929;SDS011;43305;52.186;5.598;2024-03-22T07:11:21;61.03;;;27.88;;
18929;SDS011;43305;52.186;5.598;2024-03-22T07:13:48;53.90;;;26.48;;
18929;SDS011;43305;52.186;5.598;2024-03-22T07:16:15;52.35;;;25.85;;
18929;SDS011;43305;52.186;5.598;2024-03-22T07:18:42;52.45;;;24.48;;
18929;SDS011;43305;52.186;5.598;2024-03-22T07:21:08;48.67;;;23.48;;
18929;SDS011;43305;52.186;5.598;2024-03-22T07:23:35;49.35;;;23.30;;
18929;SDS011;43305;52.186;5.598;2024-03-22T07:26:00;48.95;;;23.33;;
18929;SDS011;43305;52.186;5.598;2024-03-22T07:28:27;46.33;;;21.83;;
18929;SDS011;43305;52.186;5.598;2024-03-22T07:30:53;47.05;;;22.90;;
18929;SDS011;43305;52.186;5.598;2024-03-22T07:33:27;43.55;;;21.60;;
18929;SDS011;43305;52.186;5.598;2024-03-22T07:35:53;50.03;;;22.15;;
18929;SDS011;43305;52.186;5.598;2024-03-22T07:38:23;45.92;;;21.73;;
18929;SDS011;43305;52.186;5.598;2024-03-22T07:40:53;44.40;;;21.27;;
18929;SDS011;43305;52.186;5.598;2024-03-22T07:43:19;43.08;;;20.95;;
18929;SDS011;43305;52.186;5.598;2024-03-22T07:45:45;41.20;;;21.35;;
18929;SDS011;43305;52.186;5.598;2024-03-22T07:48:12;43.55;;;21.70;;
18929;SDS011;43305;52.186;5.598;2024-03-22T07:50:39;47.15;;;21.33;;
18929;SDS011;43305;52.186;5.598;2024-03-22T07:53:06;47.33;;;22.10;;
18929;SDS011;43305;52.186;5.598;2024-03-22T07:55:33;46.35;;;21.00;;
18929;SDS011;43305;52.186;5.598;2024-03-22T07:58:00;40.85;;;20.80;;
18929;SDS011;43305;52.186;5.598;2024-03-22T08:00:25;41.28;;;19.73;;
18929;SDS011;43305;52.186;5.598;2024-03-22T08:02:52;45.38;;;20.00;;
18929;SDS011;43305;52.186;5.598;2024-03-22T08:05:18;41.80;;;19.55;;
18929;SDS011;43305;52.186;5.598;2024-03-22T08:07:46;44.05;;;19.33;;
18929;SDS011;43305;52.186;5.598;2024-03-22T08:10:12;44.85;;;20.38;;
18929;SDS011;43305;52.186;5.598;2024-03-22T08:12:44;42.00;;;18.98;;
18929;SDS011;43305;52.186;5.598;2024-03-22T08:15:09;40.70;;;19.92;;
18929;SDS011;43305;52.186;5.598;2024-03-22T08:17:36;44.90;;;20.33;;
18929;SDS011;43305;52.186;5.598;2024-03-22T08:20:02;47.03;;;21.05;;
18929;SDS011;43305;52.186;5.598;2024-03-22T08:22:30;44.03;;;19.60;;
18929;SDS011;43305;52.186;5.598;2024-03-22T08:24:57;45.67;;;20.85;;
18929;SDS011;43305;52.186;5.598;2024-03-22T08:27:27;45.80;;;21.25;;
18929;SDS011;43305;52.186;5.598;2024-03-22T08:29:53;45.25;;;20.70;;
18929;SDS011;43305;52.186;5.598;2024-03-22T08:32:22;43.65;;;20.80;;
18929;SDS011;43305;52.186;5.598;2024-03-22T08:34:47;48.85;;;21.77;;
18929;SDS011;43305;52.186;5.598;2024-03-22T08:37:14;45.97;;;20.98;;
18929;SDS011;43305;52.186;5.598;2024-03-22T08:39:40;47.25;;;22.77;;
18929;SDS011;43305;52.186;5.598;2024-03-22T08:42:08;47.97;;;22.40;;
18929;SDS011;43305;52.186;5.598;2024-03-22T08:44:34;47.15;;;22.48;;
18929;SDS011;43305;52.186;5.598;2024-03-22T08:47:01;52.25;;;22.80;;
18929;SDS011;43305;52.186;5.598;2024-03-22T08:49:27;53.05;;;23.50;;
18929;SDS011;43305;52.186;5.598;2024-03-22T08:51:55;49.72;;;22.77;;
18929;SDS011;43305;52.186;5.598;2024-03-22T08:54:21;56.90;;;25.00;;
18929;SDS011;43305;52.186;5.598;2024-03-22T08:56:48;51.85;;;24.23;;
18929;SDS011;43305;52.186;5.598;2024-03-22T08:59:15;50.70;;;23.08;;
18929;SDS011;43305;52.186;5.598;2024-03-22T09:01:42;53.88;;;23.42;;
18929;SDS011;43305;52.186;5.598;2024-03-22T09:04:08;45.88;;;20.75;;
18929;SDS011;43305;52.186;5.598;2024-03-22T09:06:34;39.88;;;19.10;;
18929;SDS011;43305;52.186;5.598;2024-03-22T09:09:00;44.17;;;20.67;;
18929;SDS011;43305;52.186;5.598;2024-03-22T09:11:28;41.22;;;19.92;;
18929;SDS011;43305;52.186;5.598;2024-03-22T09:13:54;44.15;;;20.45;;
18929;SDS011;43305;52.186;5.598;2024-03-22T09:16:23;44.65;;;19.45;;
18929;SDS011;43305;52.186;5.598;2024-03-22T09:18:51;40.92;;;19.13;;
18929;SDS011;43305;52.186;5.598;2024-03-22T09:21:19;44.10;;;18.75;;
18929;SDS011;43305;52.186;5.598;2024-03-22T09:23:45;40.63;;;17.42;;
18929;SDS011;43305;52.186;5.598;2024-03-22T09:26:12;40.03;;;17.92;;
18929;SDS011;43305;52.186;5.598;2024-03-22T09:28:38;41.90;;;18.13;;
18929;SDS011;43305;52.186;5.598;2024-03-22T09:31:05;36.72;;;16.95;;
18929;SDS011;43305;52.186;5.598;2024-03-22T09:33:33;35.95;;;16.33;;
18929;SDS011;43305;52.186;5.598;2024-03-22T09:36:01;34.92;;;15.20;;
18929;SDS011;43305;52.186;5.598;2024-03-22T09:38:27;33.78;;;15.95;;
18929;SDS011;43305;52.186;5.598;2024-03-22T09:40:57;35.05;;;16.15;;
18929;SDS011;43305;52.186;5.598;2024-03-22T09:43:23;34.85;;;15.65;;
18929;SDS011;43305;52.186;5.598;2024-03-22T09:45:53;31.38;;;15.43;;
18929;SDS011;43305;52.186;5.598;2024-03-22T09:48:26;28.73;;;14.93;;
18929;SDS011;43305;52.186;5.598;2024-03-22T09:50:58;27.42;;;13.68;;
18929;SDS011;43305;52.186;5.598;2024-03-22T09:53:26;28.27;;;13.85;;
18929;SDS011;43305;52.186;5.598;2024-03-22T09:55:55;30.15;;;14.52;;
18929;SDS011;43305;52.186;5.598;2024-03-22T09:58:27;32.75;;;14.15;;
18929;SDS011;43305;52.186;5.598;2024-03-22T10:00:53;30.52;;;13.95;;
18929;SDS011;43305;52.186;5.598;2024-03-22T10:03:25;28.25;;;13.23;;
18929;SDS011;43305;52.186;5.598;2024-03-22T10:05:51;30.75;;;14.25;;
18929;SDS011;43305;52.186;5.598;2024-03-22T10:08:19;32.83;;;14.25;;
18929;SDS011;43305;52.186;5.598;2024-03-22T10:10:45;27.45;;;13.15;;
18929;SDS011;43305;52.186;5.598;2024-03-22T10:13:12;28.35;;;13.32;;
18929;SDS011;43305;52.186;5.598;2024-03-22T10:15:38;30.35;;;14.35;;
18929;SDS011;43305;52.186;5.598;2024-03-22T10:18:05;23.50;;;12.93;;
18929;SDS011;43305;52.186;5.598;2024-03-22T10:20:31;26.13;;;12.80;;
18929;SDS011;43305;52.186;5.598;2024-03-22T10:22:58;27.05;;;11.48;;
18929;SDS011;43305;52.186;5.598;2024-03-22T10:25:26;28.25;;;11.45;;
18929;SDS011;43305;52.186;5.598;2024-03-22T10:27:54;22.75;;;11.50;;
18929;SDS011;43305;52.186;5.598;2024-03-22T10:30:21;22.40;;;11.63;;
18929;SDS011;43305;52.186;5.598;2024-03-22T10:32:51;20.75;;;11.55;;
18929;SDS011;43305;52.186;5.598;2024-03-22T10:35:17;21.83;;;11.45;;
18929;SDS011;43305;52.186;5.598;2024-03-22T10:37:45;20.67;;;11.15;;
18929;SDS011;43305;52.186;5.598;2024-03-22T10:40:11;20.85;;;11.82;;
18929;SDS011;43305;52.186;5.598;2024-03-22T10:42:41;20.33;;;11.75;;
18929;SDS011;43305;52.186;5.598;2024-03-22T10:45:08;17.63;;;10.05;;
18929;SDS011;43305;52.186;5.598;2024-03-22T10:47:36;19.40;;;11.02;;
18929;SDS011;43305;52.186;5.598;2024-03-22T10:50:04;17.52;;;10.98;;
18929;SDS011;43305;52.186;5.598;2024-03-22T10:52:33;21.20;;;10.88;;
18929;SDS011;43305;52.186;5.598;2024-03-22T10:55:02;19.13;;;10.82;;
18929;SDS011;43305;52.186;5.598;2024-03-22T10:57:32;19.35;;;9.95;;
18929;SDS011;43305;52.186;5.598;2024-03-22T11:00:03;18.17;;;9.82;;
18929;SDS011;43305;52.186;5.598;2024-03-22T11:02:35;15.25;;;10.15;;
18929;SDS011;43305;52.186;5.598;2024-03-22T11:05:00;16.25;;;10.35;;
18929;SDS011;43305;52.186;5.598;2024-03-22T11:07:28;18.25;;;10.05;;
18929;SDS011;43305;52.186;5.598;2024-03-22T11:09:57;15.65;;;9.80;;
18929;SDS011;43305;52.186;5.598;2024-03-22T11:12:28;17.10;;;8.88;;
18929;SDS011;43305;52.186;5.598;2024-03-22T11:14:58;16.85;;;9.73;;
18929;SDS011;43305;52.186;5.598;2024-03-22T11:17:26;16.88;;;9.60;;
18929;SDS011;43305;52.186;5.598;2024-03-22T11:19:52;18.42;;;9.50;;
18929;SDS011;43305;52.186;5.598;2024-03-22T11:22:22;17.15;;;9.40;;
18929;SDS011;43305;52.186;5.598;2024-03-22T11:24:47;16.88;;;10.10;;
18929;SDS011;43305;52.186;5.598;2024-03-22T11:27:15;15.73;;;9.90;;
18929;SDS011;43305;52.186;5.598;2024-03-22T11:29:40;18.30;;;9.82;;
18929;SDS011;43305;52.186;5.598;2024-03-22T11:32:09;17.23;;;9.65;;
18929;SDS011;43305;52.186;5.598;2024-03-22T11:34:44;18.15;;;9.93;;
18929;SDS011;43305;52.186;5.598;2024-03-22T11:37:11;18.77;;;9.82;;
18929;SDS011;43305;52.186;5.598;2024-03-22T11:39:37;16.40;;;9.18;;
18929;SDS011;43305;52.186;5.598;2024-03-22T11:42:04;17.77;;;9.68;;
18929;SDS011;43305;52.186;5.598;2024-03-22T11:44:32;17.20;;;8.63;;
18929;SDS011;43305;52.186;5.598;2024-03-22T11:46:59;13.70;;;8.00;;
18929;SDS011;43305;52.186;5.598;2024-03-22T11:49:28;14.18;;;8.45;;
18929;SDS011;43305;52.186;5.598;2024-03-22T11:51:56;16.58;;;8.48;;
18929;SDS011;43305;52.186;5.598;2024-03-22T11:54:22;13.38;;;7.53;;
18929;SDS011;43305;52.186;5.598;2024-03-22T11:56:54;15.95;;;8.07;;
18929;SDS011;43305;52.186;5.598;2024-03-22T11:59:21;13.38;;;7.85;;
18929;SDS011;43305;52.186;5.598;2024-03-22T12:01:48;10.98;;;6.82;;
18929;SDS011;43305;52.186;5.598;2024-03-22T12:04:16;11.77;;;6.35;;
18929;SDS011;43305;52.186;5.598;2024-03-22T12:06:43;11.77;;;6.60;;
18929;SDS011;43305;52.186;5.598;2024-03-22T12:09:11;10.40;;;6.07;;
18929;SDS011;43305;52.186;5.598;2024-03-22T12:11:38;10.57;;;5.60;;
18929;SDS011;43305;52.186;5.598;2024-03-22T12:14:05;8.93;;;5.78;;
18929;SDS011;43305;52.186;5.598;2024-03-22T12:16:32;8.15;;;5.13;;
18929;SDS011;43305;52.186;5.598;2024-03-22T12:18:58;8.88;;;4.93;;
18929;SDS011;43305;52.186;5.598;2024-03-22T12:21:25;8.02;;;5.18;;
18929;SDS011;43305;52.186;5.598;2024-03-22T12:23:50;6.78;;;4.75;;
18929;SDS011;43305;52.186;5.598;2024-03-22T12:26:19;7.30;;;4.85;;
18929;SDS011;43305;52.186;5.598;2024-03-22T12:28:45;10.05;;;5.32;;
18929;SDS011;43305;52.186;5.598;2024-03-22T12:31:11;6.85;;;4.60;;
18929;SDS011;43305;52.186;5.598;2024-03-22T12:33:38;9.85;;;5.40;;
18929;SDS011;43305;52.186;5.598;2024-03-22T12:36:05;9.57;;;4.95;;
18929;SDS011;43305;52.186;5.598;2024-03-22T12:38:31;9.07;;;5.68;;
18929;SDS011;43305;52.186;5.598;2024-03-22T12:40:58;8.13;;;5.53;;
18929;SDS011;43305;52.186;5.598;2024-03-22T12:43:29;9.13;;;5.70;;
18929;SDS011;43305;52.186;5.598;2024-03-22T12:45:55;10.20;;;6.30;;
18929;SDS011;43305;52.186;5.598;2024-03-22T12:48:21;11.68;;;7.07;;
18929;SDS011;43305;52.186;5.598;2024-03-22T12:50:51;11.38;;;7.05;;
18929;SDS011;43305;52.186;5.598;2024-03-22T12:53:18;15.07;;;8.18;;
18929;SDS011;43305;52.186;5.598;2024-03-22T12:55:45;12.35;;;7.65;;
18929;SDS011;43305;52.186;5.598;2024-03-22T12:58:11;16.42;;;8.57;;
18929;SDS011;43305;52.186;5.598;2024-03-22T13:00:39;14.32;;;8.25;;
18929;SDS011;43305;52.186;5.598;2024-03-22T13:03:05;14.45;;;8.75;;
18929;SDS011;43305;52.186;5.598;2024-03-22T13:05:32;14.80;;;8.68;;
18929;SDS011;43305;52.186;5.598;2024-03-22T13:07:58;14.20;;;8.35;;
18929;SDS011;43305;52.186;5.598;2024-03-22T13:10:25;12.52;;;7.32;;
18929;SDS011;43305;52.186;5.598;2024-03-22T13:12:51;14.82;;;7.63;;
18929;SDS011;43305;52.186;5.598;2024-03-22T13:15:18;13.88;;;7.45;;
18929;SDS011;43305;52.186;5.598;2024-03-22T13:17:45;15.52;;;8.13;;
18929;SDS011;43305;52.186;5.598;2024-03-22T13:20:12;16.50;;;8.15;;
18929;SDS011;43305;52.186;5.598;2024-03-22T13:22:40;16.95;;;8.00;;
18929;SDS011;43305;52.186;5.598;2024-03-22T13:25:07;19.85;;;8.18;;
18929;SDS011;43305;52.186;5.598;2024-03-22T13:27:35;20.27;;;9.65;;
18929;SDS011;43305;52.186;5.598;2024-03-22T13:30:04;23.23;;;11.10;;
18929;SDS011;43305;52.186;5.598;2024-03-22T13:32:34;20.90;;;9.68;;
18929;SDS011;43305;52.186;5.598;2024-03-22T13:35:03;19.30;;;9.65;;
18929;SDS011;43305;52.186;5.598;2024-03-22T13:37:30;22.58;;;9.82;;
18929;SDS011;43305;52.186;5.598;2024-03-22T13:39:57;19.23;;;9.07;;
18929;SDS011;43305;52.186;5.598;2024-03-22T13:42:23;21.15;;;8.55;;
18929;SDS011;43305;52.186;5.598;2024-03-22T13:44:51;17.60;;;9.05;;
18929;SDS011;43305;52.186;5.598;2024-03-22T13:47:17;20.23;;;10.52;;
18929;SDS011;43305;52.186;5.598;2024-03-22T13:49:44;17.48;;;10.00;;
18929;SDS011;43305;52.186;5.598;2024-03-22T13:52:11;20.17;;;9.57;;
18929;SDS011;43305;52.186;5.598;2024-03-22T13:54:38;17.92;;;9.00;;
18929;SDS011;43305;52.186;5.598;2024-03-22T13:57:04;17.75;;;9.45;;
18929;SDS011;43305;52.186;5.598;2024-03-22T13:59:31;21.23;;;9.77;;
18929;SDS011;43305;52.186;5.598;2024-03-22T14:01:57;18.27;;;9.27;;
18929;SDS011;43305;52.186;5.598;2024-03-22T14:04:24;20.98;;;10.02;;
18929;SDS011;43305;52.186;5.598;2024-03-22T14:06:51;17.73;;;9.80;;
18929;SDS011;43305;52.186;5.598;2024-03-22T14:09:20;19.08;;;9.82;;
18929;SDS011;43305;52.186;5.598;2024-03-22T14:11:46;21.25;;;10.40;;
18929;SDS011;43305;52.186;5.598;2024-03-22T14:14:14;19.80;;;10.68;;
18929;SDS011;43305;52.186;5.598;2024-03-22T14:16:40;23.67;;;10.73;;
18929;SDS011;43305;52.186;5.598;2024-03-22T14:19:07;20.38;;;11.10;;
18929;SDS011;43305;52.186;5.598;2024-03-22T14:21:33;23.05;;;11.73;;
18929;SDS011;43305;52.186;5.598;2024-03-22T14:24:00;20.58;;;10.98;;